Startpagina
METAR-TAF:

METAR-TAF

Vliegvelden :

Aéroport de Paris-Beauvais-Tillé

Beauvais, Frankrijk

breedte: 49-28N, lengte: 002-07E, hoogte: 109 m

Actueel weer

Dit bericht is 34 minuten geleden gemaakt, om 19:00 UTC
Wind 3 kt uit het zuiden
Temperatuur 0°C
Vochtigheid 100%
Druk 1023 hPa
Zicht: 3200 m
Geheel bewolkt op 300 ft
nevel

METAR: LFOB 241900Z AUTO 19003KT 3200 BR OVC003 00/M00 Q1023 BECMG 2000 BR OVC001

Tijdstip: 20:34 (19:34 UTC)

Verwachting

Dit bericht is 2 uur en het 34 minuten geleden gemaakt, om 17:00 UTC
Verwachting geldig van 24 om 18 UTC tot 25 om 18 UTC
Wind 2 kt uit variabele richting
Zicht: 2000 m
Geheel bewolkt op 400 ft
nevel
Wijzigt naar
van 24 om 19 UTC tot 24 om 22 UTC
Geheel bewolkt op 100 ft
Kans 40%
van 24 om 22 UTC tot 25 om 12 UTC
Zicht: 0300 m
mist

TAF: LFOB 241700Z 2418/2518 VRB02KT 2000 BR OVC004 BECMG 2419/2422 OVC001 PROB40 2422/2512 0300 FG VV///

Waarnemingen en weersverwachtingen van meer dan 4000 vliegvelden (METAR en TAF).

De beschikbare stations zijn de gele en rode punten op de kaart.

Ga met uw muis naar het station om de naam te zien.

Klik dan om waarnemingen en weersverwachtingen te zien.

kaart wijzigen: klik op de groene knoppen met een zwart kruis om in te zoomen, op de groene knop met een streepje om uit te zoomen of op de groene pijlen voor aangrenzende kaarten.


METAR-TAF: